createdAt,value
2022-09-18T00:01:01.873Z,1.70
2022-09-18T00:03:28.519Z,2.05
2022-09-18T00:05:54.905Z,2.08
2022-09-18T00:08:21.222Z,1.77
2022-09-18T00:10:47.609Z,1.88
2022-09-18T00:13:14.807Z,2.30
2022-09-18T00:15:41.849Z,1.83
2022-09-18T00:18:08.870Z,1.98
2022-09-18T00:20:35.525Z,2.35
2022-09-18T00:23:01.898Z,1.95
2022-09-18T00:25:28.665Z,1.63
2022-09-18T00:27:55.030Z,2.28
2022-09-18T00:30:21.488Z,2.42
2022-09-18T00:32:48.421Z,1.88
2022-09-18T00:35:14.841Z,2.20
2022-09-18T00:37:41.156Z,1.90
2022-09-18T00:40:07.734Z,1.75
2022-09-18T00:42:34.761Z,2.22
2022-09-18T00:45:01.196Z,2.00
2022-09-18T00:47:40.809Z,2.65
2022-09-18T00:50:09.754Z,1.77
2022-09-18T00:52:42.333Z,2.40
2022-09-18T00:55:11.461Z,1.42
2022-09-18T00:57:41.157Z,2.75
2022-09-18T01:00:11.749Z,1.08
2022-09-18T01:02:42.245Z,1.40
2022-09-18T01:05:09.331Z,1.70
2022-09-18T01:07:57.833Z,2.05
2022-09-18T01:10:36.465Z,1.75
2022-09-18T01:13:13.077Z,2.25
2022-09-18T01:15:44.017Z,2.10
2022-09-18T01:18:16.278Z,1.77
2022-09-18T01:20:54.970Z,2.10
2022-09-18T01:23:40.626Z,2.08
2022-09-18T01:26:07.204Z,2.95
2022-09-18T01:28:43.752Z,1.73
2022-09-18T01:31:13.521Z,1.83
2022-09-18T01:33:50.173Z,1.55
2022-09-18T01:36:17.477Z,1.60
2022-09-18T01:38:57.487Z,1.60
2022-09-18T01:41:25.409Z,1.63
2022-09-18T01:43:59.055Z,1.50
2022-09-18T01:46:26.095Z,1.77
2022-09-18T01:48:56.812Z,2.45
2022-09-18T01:51:28.468Z,1.73
2022-09-18T01:53:57.122Z,2.08
2022-09-18T01:56:26.678Z,1.20
2022-09-18T01:58:55.969Z,1.63
2022-09-18T02:01:29.352Z,1.52
2022-09-18T02:04:08.689Z,1.65
2022-09-18T02:06:41.721Z,1.33
2022-09-18T02:09:10.853Z,2.35
2022-09-18T02:11:40.940Z,1.88
2022-09-18T02:14:15.933Z,1.73
2022-09-18T02:17:06.576Z,1.77
2022-09-18T02:20:10.958Z,1.58
2022-09-18T02:22:38.352Z,2.15
2022-09-18T02:25:06.116Z,1.88
2022-09-18T02:27:34.192Z,1.98
2022-09-18T02:30:01.486Z,2.20
2022-09-18T02:32:28.072Z,1.98
2022-09-18T02:34:54.526Z,1.80
2022-09-18T02:37:39.738Z,1.90
2022-09-18T02:40:15.098Z,1.80
2022-09-18T02:42:51.989Z,1.58
2022-09-18T02:45:18.333Z,1.58
2022-09-18T02:48:17.325Z,1.80
2022-09-18T02:50:59.609Z,1.85
2022-09-18T02:53:31.993Z,2.08
2022-09-18T02:56:22.527Z,1.98
2022-09-18T02:58:49.981Z,1.40
2022-09-18T03:01:17.432Z,1.63
2022-09-18T03:03:43.908Z,1.90
2022-09-18T03:06:12.362Z,1.52
2022-09-18T03:08:39.145Z,2.10
2022-09-18T03:11:06.192Z,1.75
2022-09-18T03:13:32.572Z,1.75
2022-09-18T03:15:59.034Z,1.30
2022-09-18T03:18:26.396Z,1.20
2022-09-18T03:20:55.457Z,1.60
2022-09-18T03:23:23.508Z,1.48
2022-09-18T03:25:52.711Z,1.48
2022-09-18T03:28:19.064Z,1.55
2022-09-18T03:30:46.036Z,1.35
2022-09-18T03:33:13.670Z,1.70
2022-09-18T03:35:42.893Z,1.40
2022-09-18T03:38:09.537Z,1.42
2022-09-18T03:40:36.373Z,1.88
2022-09-18T03:43:05.280Z,1.88
2022-09-18T03:45:31.775Z,1.85
2022-09-18T03:47:59.630Z,2.00
2022-09-18T03:50:26.145Z,1.80
2022-09-18T03:52:52.918Z,2.40
2022-09-18T03:55:36.845Z,1.75
2022-09-18T03:58:21.796Z,1.65
2022-09-18T04:01:07.105Z,2.08
2022-09-18T04:03:52.516Z,2.45
2022-09-18T04:06:39.017Z,2.17
2022-09-18T04:09:19.241Z,1.80
2022-09-18T04:11:50.407Z,2.47
2022-09-18T04:14:17.946Z,2.08
2022-09-18T04:16:45.178Z,2.30
2022-09-18T04:19:11.520Z,2.40
2022-09-18T04:21:38.967Z,2.30
2022-09-18T04:24:06.264Z,2.63
2022-09-18T04:26:35.848Z,1.75
2022-09-18T04:29:03.542Z,2.40
2022-09-18T04:31:30.879Z,2.63
2022-09-18T04:34:01.833Z,2.83
2022-09-18T04:36:28.406Z,1.88
2022-09-18T04:38:54.898Z,1.80
2022-09-18T04:41:21.389Z,2.50
2022-09-18T04:43:49.150Z,1.77
2022-09-18T04:46:16.429Z,2.00
2022-09-18T04:48:45.993Z,1.95
2022-09-18T04:51:12.412Z,1.70
2022-09-18T04:53:47.378Z,2.00
2022-09-18T04:56:14.213Z,2.28
2022-09-18T04:58:45.194Z,2.42
2022-09-18T05:01:12.008Z,1.40
2022-09-18T05:03:38.417Z,1.85
2022-09-18T05:06:06.297Z,1.35
2022-09-18T05:08:34.603Z,1.20
2022-09-18T05:11:02.157Z,1.70
2022-09-18T05:13:30.801Z,1.80
2022-09-18T05:16:02.739Z,1.40
2022-09-18T05:18:30.710Z,1.48
2022-09-18T05:21:03.293Z,1.90
2022-09-18T05:23:31.077Z,1.98
2022-09-18T05:25:57.538Z,2.47
2022-09-18T05:28:23.889Z,1.70
2022-09-18T05:30:52.645Z,2.40
2022-09-18T05:33:19.013Z,1.20
2022-09-18T05:35:45.414Z,1.27
2022-09-18T05:38:11.813Z,1.75
2022-09-18T05:40:42.145Z,2.28
2022-09-18T05:43:09.541Z,1.17
2022-09-18T05:45:37.010Z,1.80
2022-09-18T05:48:13.972Z,1.90
2022-09-18T05:50:42.092Z,1.40
2022-09-18T05:53:14.382Z,1.50
2022-09-18T05:56:03.698Z,1.45
2022-09-18T05:58:31.101Z,1.45
2022-09-18T06:00:58.702Z,1.00
2022-09-18T06:03:32.297Z,1.00
2022-09-18T06:06:00.277Z,1.35
2022-09-18T06:08:26.630Z,1.05
2022-09-18T06:10:54.665Z,0.80
2022-09-18T06:13:21.120Z,1.02
2022-09-18T06:15:52.317Z,0.88
2022-09-18T06:18:27.537Z,1.20
2022-09-18T06:20:57.604Z,1.05
2022-09-18T06:23:27.124Z,1.33
2022-09-18T06:26:00.347Z,1.38
2022-09-18T06:28:27.074Z,1.40
2022-09-18T06:30:53.536Z,1.17
2022-09-18T06:33:20.684Z,1.25
2022-09-18T06:35:49.059Z,1.20
2022-09-18T06:38:23.029Z,1.10
2022-09-18T06:40:51.193Z,1.25
2022-09-18T06:43:23.810Z,1.70
2022-09-18T06:46:23.484Z,1.42
2022-09-18T06:48:50.458Z,0.80
2022-09-18T06:51:17.430Z,1.05
2022-09-18T06:54:00.963Z,1.40
2022-09-18T06:56:27.474Z,1.10
2022-09-18T06:58:54.526Z,1.55
2022-09-18T07:01:20.886Z,1.58
2022-09-18T07:03:59.316Z,1.50
2022-09-18T07:06:31.614Z,1.02
2022-09-18T07:08:58.000Z,0.95
2022-09-18T07:11:50.942Z,1.02
2022-09-18T07:14:17.500Z,1.00
2022-09-18T07:16:44.057Z,1.30
2022-09-18T07:19:12.034Z,1.10
2022-09-18T07:21:40.280Z,1.30
2022-09-18T07:24:06.865Z,1.20
2022-09-18T07:26:34.265Z,1.02
2022-09-18T07:29:02.003Z,1.50
2022-09-18T07:31:34.397Z,0.95
2022-09-18T07:34:04.265Z,1.52
2022-09-18T07:36:32.049Z,0.95
2022-09-18T07:38:58.780Z,1.48
2022-09-18T07:41:32.248Z,0.90
2022-09-18T07:43:59.660Z,0.73
2022-09-18T07:46:26.139Z,1.10
2022-09-18T07:48:57.360Z,0.73
2022-09-18T07:51:27.348Z,1.10
2022-09-18T07:53:55.745Z,1.15
2022-09-18T07:56:46.527Z,1.45
2022-09-18T07:59:16.264Z,1.17
2022-09-18T08:01:42.842Z,0.70
2022-09-18T08:04:10.779Z,0.88
2022-09-18T08:07:04.119Z,1.25
2022-09-18T08:10:03.000Z,1.90
2022-09-18T08:12:37.341Z,1.80
2022-09-18T08:15:18.817Z,1.15
2022-09-18T08:17:58.104Z,1.00
2022-09-18T08:23:26.826Z,0.90
2022-09-18T08:25:53.225Z,0.70
2022-09-18T08:28:19.637Z,0.85
2022-09-18T08:30:52.466Z,1.02
2022-09-18T08:33:18.844Z,1.23
2022-09-18T08:35:46.090Z,2.08
2022-09-18T08:38:26.200Z,1.10
2022-09-18T08:41:23.497Z,1.13
2022-09-18T08:44:02.536Z,1.33
2022-09-18T08:46:32.750Z,0.93
2022-09-18T08:49:07.029Z,0.82
2022-09-18T08:51:36.485Z,1.20
2022-09-18T08:54:29.199Z,1.00
2022-09-18T08:57:28.820Z,0.90
2022-09-18T09:00:03.961Z,1.08
2022-09-18T09:02:35.413Z,1.00
2022-09-18T09:05:03.656Z,1.10
2022-09-18T09:07:50.528Z,1.10
2022-09-18T09:10:30.613Z,1.40
2022-09-18T09:13:21.300Z,1.30
2022-09-18T09:15:59.217Z,1.00
2022-09-18T09:18:31.484Z,1.40
2022-09-18T09:21:02.837Z,1.88
2022-09-18T09:23:43.978Z,1.48
2022-09-18T09:26:25.197Z,2.10
2022-09-18T09:29:09.916Z,1.15
2022-09-18T09:34:52.005Z,1.52
2022-09-18T09:37:40.442Z,1.17
2022-09-18T09:40:20.370Z,1.48
2022-09-18T09:42:51.436Z,1.30
2022-09-18T09:45:34.730Z,1.48
2022-09-18T09:48:05.604Z,1.70
2022-09-18T09:51:11.539Z,2.03
2022-09-18T09:53:37.905Z,1.40
2022-09-18T09:56:14.952Z,1.48
2022-09-18T09:59:00.189Z,1.33
2022-09-18T10:01:29.594Z,1.70
2022-09-18T10:04:03.141Z,1.10
2022-09-18T10:06:41.764Z,1.20
2022-09-18T10:09:16.973Z,0.85
2022-09-18T10:11:55.247Z,0.93
2022-09-18T10:14:25.531Z,1.38
2022-09-18T10:16:53.821Z,0.80
2022-09-18T10:19:21.955Z,0.85
2022-09-18T10:21:50.953Z,0.68
2022-09-18T10:24:24.536Z,0.73
2022-09-18T10:26:59.350Z,0.75
2022-09-18T10:29:26.649Z,1.00
2022-09-18T10:31:58.734Z,0.57
2022-09-18T10:34:33.146Z,0.80
2022-09-18T10:37:01.259Z,1.00
2022-09-18T10:39:31.968Z,1.10
2022-09-18T10:42:05.911Z,0.77
2022-09-18T10:44:36.843Z,1.40
2022-09-18T10:47:10.079Z,0.85
2022-09-18T10:49:57.409Z,1.30
2022-09-18T10:52:29.662Z,1.17
2022-09-18T10:54:57.880Z,1.50
2022-09-18T10:57:35.485Z,1.10
2022-09-18T11:00:25.405Z,1.20
2022-09-18T11:02:58.489Z,0.85
2022-09-18T11:05:32.651Z,0.90
2022-09-18T11:08:03.977Z,1.20
2022-09-18T11:10:33.005Z,1.27
2022-09-18T11:13:02.196Z,1.05
2022-09-18T11:15:48.011Z,1.20
2022-09-18T11:18:15.784Z,1.20
2022-09-18T11:20:44.886Z,1.13
2022-09-18T11:23:25.365Z,1.50
2022-09-18T11:26:11.893Z,1.13
2022-09-18T11:28:39.563Z,1.08
2022-09-18T11:31:19.437Z,0.90
2022-09-18T11:33:54.578Z,1.17
2022-09-18T11:36:30.882Z,1.10
2022-09-18T11:38:59.584Z,1.55
2022-09-18T11:41:28.544Z,1.20
2022-09-18T11:43:59.732Z,1.38
2022-09-18T11:46:39.254Z,1.63
2022-09-18T11:49:15.237Z,1.10
2022-09-18T11:51:59.209Z,1.60
2022-09-18T11:54:39.897Z,1.60
2022-09-18T11:59:48.064Z,1.13
2022-09-18T12:02:17.343Z,1.40
2022-09-18T12:04:49.283Z,0.80
2022-09-18T12:07:40.266Z,1.20
2022-09-18T12:10:32.008Z,1.08
2022-09-18T12:13:19.914Z,1.40
2022-09-18T12:15:49.481Z,1.50
2022-09-18T12:18:19.275Z,1.40
2022-09-18T12:20:51.006Z,0.90
2022-09-18T12:23:22.485Z,1.00
2022-09-18T12:25:49.180Z,1.38
2022-09-18T12:28:42.677Z,1.10
2022-09-18T12:31:21.441Z,0.80
2022-09-18T12:33:52.434Z,1.17
2022-09-18T12:36:24.686Z,1.45
2022-09-18T12:39:13.035Z,3.63
2022-09-18T12:41:49.869Z,0.70
2022-09-18T12:44:28.589Z,0.57
2022-09-18T12:47:18.209Z,0.60
2022-09-18T12:49:44.556Z,1.20
2022-09-18T12:52:34.254Z,0.80
2022-09-18T12:55:03.655Z,0.82
2022-09-18T12:57:42.305Z,1.83
2022-09-18T13:00:12.202Z,1.13
2022-09-18T13:02:57.457Z,1.10
2022-09-18T13:05:34.482Z,0.90
2022-09-18T13:08:07.087Z,0.88
2022-09-18T13:13:03.913Z,1.50
2022-09-18T13:15:34.096Z,1.10
2022-09-18T13:18:19.800Z,0.90
2022-09-18T13:20:46.867Z,0.90
2022-09-18T13:23:19.095Z,1.50
2022-09-18T13:25:47.290Z,1.60
2022-09-18T13:28:16.861Z,3.13
2022-09-18T13:30:43.671Z,1.25
2022-09-18T13:33:21.924Z,1.75
2022-09-18T13:35:52.750Z,1.67
2022-09-18T13:38:20.695Z,1.67
2022-09-18T13:40:49.013Z,1.20
2022-09-18T13:43:41.832Z,1.10
2022-09-18T13:46:09.895Z,1.40
2022-09-18T13:48:39.627Z,1.40
2022-09-18T13:51:08.309Z,1.30
2022-09-18T13:53:39.652Z,1.30
2022-09-18T13:56:07.663Z,1.15
2022-09-18T13:58:35.800Z,0.95
2022-09-18T14:01:05.225Z,1.20
2022-09-18T14:03:33.105Z,1.30
2022-09-18T14:05:59.537Z,1.50
2022-09-18T14:08:26.668Z,1.05
2022-09-18T14:11:14.476Z,0.82
2022-09-18T14:13:41.670Z,1.50
2022-09-18T14:16:24.780Z,1.52
2022-09-18T14:18:54.373Z,1.52
2022-09-18T14:21:23.976Z,1.25
2022-09-18T14:23:51.491Z,1.73
2022-09-18T14:26:30.100Z,1.00
2022-09-18T14:29:00.801Z,0.95
2022-09-18T14:31:28.537Z,0.70
2022-09-18T14:33:58.700Z,0.85
2022-09-18T14:36:25.088Z,0.70
2022-09-18T14:38:51.513Z,0.90
2022-09-18T14:41:20.228Z,0.80
2022-09-18T14:43:48.413Z,0.75
2022-09-18T14:46:18.885Z,1.45
2022-09-18T14:48:45.304Z,1.23
2022-09-18T14:51:19.924Z,0.90
2022-09-18T14:53:49.960Z,0.80
2022-09-18T14:56:28.624Z,1.23
2022-09-18T14:58:56.352Z,1.00
2022-09-18T15:01:24.214Z,1.40
2022-09-18T15:03:52.016Z,1.65
2022-09-18T15:06:35.720Z,1.52
2022-09-18T15:09:02.389Z,1.63
2022-09-18T15:11:41.649Z,2.25
2022-09-18T15:14:42.824Z,2.90
2022-09-18T15:17:18.188Z,1.98
2022-09-18T15:20:01.071Z,1.40
2022-09-18T15:24:54.897Z,1.45
2022-09-18T15:27:22.227Z,1.60
2022-09-18T15:29:51.856Z,1.50
2022-09-18T15:32:29.068Z,1.00
2022-09-18T15:34:56.118Z,1.17
2022-09-18T15:37:23.788Z,1.75
2022-09-18T15:40:05.024Z,1.48
2022-09-18T15:42:32.941Z,2.47
2022-09-18T15:44:59.260Z,2.10
2022-09-18T15:47:25.584Z,2.70
2022-09-18T15:49:52.468Z,1.95
2022-09-18T15:52:37.624Z,2.45
2022-09-18T15:55:10.094Z,1.52
2022-09-18T15:57:37.060Z,2.50
2022-09-18T16:00:10.682Z,1.60
2022-09-18T16:02:39.214Z,1.02
2022-09-18T16:05:09.747Z,0.82
2022-09-18T16:07:38.124Z,1.10
2022-09-18T16:10:06.518Z,1.40
2022-09-18T16:12:35.110Z,1.20
2022-09-18T16:15:08.625Z,1.60
2022-09-18T16:17:39.437Z,1.80
2022-09-18T16:20:23.072Z,2.25
2022-09-18T16:22:50.591Z,3.05
2022-09-18T16:25:20.010Z,4.03
2022-09-18T16:27:47.464Z,4.90
2022-09-18T16:30:15.614Z,2.42
2022-09-18T16:32:42.416Z,1.88
2022-09-18T16:35:12.298Z,1.60
2022-09-18T16:37:40.783Z,1.70
2022-09-18T16:40:18.174Z,2.17
2022-09-18T16:42:44.786Z,2.00
2022-09-18T16:45:11.731Z,1.48
2022-09-18T16:47:41.446Z,2.05
2022-09-18T16:50:08.055Z,1.48
2022-09-18T16:52:34.533Z,1.73
2022-09-18T16:55:00.941Z,2.03
2022-09-18T16:57:29.252Z,2.42
2022-09-18T16:59:58.240Z,2.22
2022-09-18T17:02:26.162Z,1.52
2022-09-18T17:04:52.679Z,1.25
2022-09-18T17:07:19.063Z,1.10
2022-09-18T17:09:45.436Z,0.70
2022-09-18T17:12:12.865Z,1.33
2022-09-18T17:14:41.000Z,1.63
2022-09-18T17:17:07.527Z,1.38
2022-09-18T17:19:33.996Z,0.93
2022-09-18T17:22:00.441Z,1.98
2022-09-18T17:24:27.933Z,3.05
2022-09-18T17:26:54.390Z,2.20
2022-09-18T17:29:21.179Z,2.85
2022-09-18T17:31:47.563Z,2.28
2022-09-18T17:34:16.849Z,2.55
2022-09-18T17:36:43.238Z,2.15
2022-09-18T17:39:09.594Z,1.60
2022-09-18T17:41:36.055Z,2.22
2022-09-18T17:44:02.635Z,1.42
2022-09-18T17:46:29.037Z,2.00
2022-09-18T17:48:56.517Z,1.70
2022-09-18T17:51:28.189Z,1.60
2022-09-18T17:54:05.427Z,1.80
2022-09-18T17:56:32.878Z,1.65
2022-09-18T17:59:01.639Z,1.20
2022-09-18T18:01:28.497Z,3.40
2022-09-18T18:03:55.041Z,2.22
2022-09-18T18:06:22.004Z,6.25
2022-09-18T18:08:48.932Z,3.28
2022-09-18T18:11:16.666Z,2.88
2022-09-18T18:13:44.485Z,2.33
2022-09-18T18:16:22.902Z,1.83
2022-09-18T18:18:50.448Z,1.70
2022-09-18T18:21:17.125Z,1.80
2022-09-18T18:23:43.985Z,1.20
2022-09-18T18:26:11.212Z,1.35
2022-09-18T18:28:38.343Z,1.60
2022-09-18T18:31:12.215Z,1.42
2022-09-18T18:33:41.075Z,1.15
2022-09-18T18:36:08.777Z,1.40
2022-09-18T18:38:35.558Z,1.98
2022-09-18T18:41:03.576Z,3.58
2022-09-18T18:43:30.904Z,3.75
2022-09-18T18:45:57.577Z,3.38
2022-09-18T18:48:24.158Z,2.65
2022-09-18T18:50:50.530Z,2.22
2022-09-18T18:53:17.488Z,2.17
2022-09-18T18:55:48.244Z,2.33
2022-09-18T18:58:15.543Z,2.05
2022-09-18T19:00:42.102Z,2.08
2022-09-18T19:03:08.520Z,1.50
2022-09-18T19:05:36.041Z,2.35
2022-09-18T19:08:03.222Z,1.88
2022-09-18T19:10:29.658Z,2.10
2022-09-18T19:13:00.497Z,2.00
2022-09-18T19:15:27.612Z,1.73
2022-09-18T19:18:02.110Z,1.73
2022-09-18T19:20:28.507Z,2.90
2022-09-18T19:22:56.786Z,2.28
2022-09-18T19:25:26.697Z,2.10
2022-09-18T19:27:56.207Z,2.75
2022-09-18T19:30:24.969Z,2.50
2022-09-18T19:32:55.225Z,2.40
2022-09-18T19:35:22.309Z,2.30
2022-09-18T19:37:50.473Z,1.42
2022-09-18T19:40:17.585Z,1.77
2022-09-18T19:42:52.356Z,2.03
2022-09-18T19:45:20.745Z,1.55
2022-09-18T19:47:48.565Z,2.13
2022-09-18T19:50:17.483Z,1.50
2022-09-18T19:52:46.758Z,2.30
2022-09-18T19:55:16.945Z,2.95
2022-09-18T19:57:43.445Z,2.05
2022-09-18T20:00:10.272Z,2.35
2022-09-18T20:02:39.648Z,2.85
2022-09-18T20:05:09.594Z,2.25
2022-09-18T20:07:39.726Z,2.35
2022-09-18T20:10:06.975Z,2.55
2022-09-18T20:12:35.568Z,2.47
2022-09-18T20:15:03.571Z,2.25
2022-09-18T20:17:31.571Z,2.22
2022-09-18T20:19:58.909Z,2.90
2022-09-18T20:22:26.000Z,2.35
2022-09-18T20:24:53.000Z,2.15
2022-09-18T20:27:19.802Z,2.50
2022-09-18T20:29:46.246Z,2.33
2022-09-18T20:32:12.841Z,1.65
2022-09-18T20:34:39.333Z,2.50
2022-09-18T20:37:10.213Z,2.28
2022-09-18T20:39:37.035Z,1.90
2022-09-18T20:42:04.085Z,2.17
2022-09-18T20:44:32.100Z,2.05
2022-09-18T20:46:58.585Z,2.10
2022-09-18T20:49:25.195Z,2.45
2022-09-18T20:51:51.791Z,2.42
2022-09-18T20:54:24.498Z,1.80
2022-09-18T20:59:18.263Z,2.78
2022-09-18T21:01:45.636Z,2.03
2022-09-18T21:04:19.371Z,2.58
2022-09-18T21:06:47.700Z,2.35
2022-09-18T21:09:14.410Z,1.90
2022-09-18T21:11:42.839Z,2.58
2022-09-18T21:14:11.012Z,2.05
2022-09-18T21:16:42.956Z,2.60
2022-09-18T21:19:11.127Z,1.90
2022-09-18T21:21:37.480Z,2.40
2022-09-18T21:24:04.200Z,2.97
2022-09-18T21:26:41.520Z,2.75
2022-09-18T21:29:10.919Z,2.90
2022-09-18T21:31:41.018Z,2.78
2022-09-18T21:34:14.835Z,3.47
2022-09-18T21:36:43.237Z,2.58
2022-09-18T21:39:10.574Z,2.75
2022-09-18T21:41:39.176Z,1.85
2022-09-18T21:44:06.593Z,2.10
2022-09-18T21:46:35.638Z,2.03
2022-09-18T21:49:04.675Z,1.88
2022-09-18T21:51:31.277Z,2.20
2022-09-18T21:53:58.966Z,2.15
2022-09-18T21:56:25.734Z,2.20
2022-09-18T21:58:54.069Z,2.10
2022-09-18T22:01:21.804Z,2.13
2022-09-18T22:03:53.375Z,1.58
2022-09-18T22:06:25.994Z,1.45
2022-09-18T22:08:54.371Z,1.63
2022-09-18T22:11:24.056Z,1.42
2022-09-18T22:13:52.504Z,2.50
2022-09-18T22:16:19.637Z,1.88
2022-09-18T22:18:48.401Z,2.00
2022-09-18T22:21:17.851Z,2.05
2022-09-18T22:23:44.656Z,1.90
2022-09-18T22:26:11.061Z,1.98
2022-09-18T22:28:37.371Z,2.22
2022-09-18T22:31:05.061Z,2.42
2022-09-18T22:33:32.439Z,2.00
2022-09-18T22:36:05.112Z,2.22
2022-09-18T22:41:05.020Z,1.70
2022-09-18T22:43:31.408Z,2.10
2022-09-18T22:46:02.336Z,2.10
2022-09-18T22:48:30.616Z,2.20
2022-09-18T22:51:02.410Z,1.80
2022-09-18T22:53:28.817Z,1.50
2022-09-18T22:56:00.159Z,2.00
2022-09-18T22:58:26.625Z,1.60
2022-09-18T23:00:52.991Z,1.70
2022-09-18T23:03:19.386Z,1.60
2022-09-18T23:05:46.977Z,1.60
2022-09-18T23:08:13.596Z,2.00
2022-09-18T23:10:39.931Z,2.30
2022-09-18T23:13:06.701Z,1.83
2022-09-18T23:15:36.175Z,1.48
2022-09-18T23:18:02.496Z,2.13
2022-09-18T23:20:29.403Z,2.08
2022-09-18T23:22:55.885Z,1.80
2022-09-18T23:25:22.187Z,1.60
2022-09-18T23:27:49.341Z,2.13
2022-09-18T23:30:15.864Z,1.67
2022-09-18T23:32:42.216Z,1.92
2022-09-18T23:35:08.712Z,2.65
2022-09-18T23:37:35.074Z,1.95
2022-09-18T23:40:01.591Z,1.85
2022-09-18T23:42:28.054Z,2.30
2022-09-18T23:44:54.524Z,1.98
2022-09-18T23:47:20.936Z,2.00
2022-09-18T23:49:48.261Z,2.20
2022-09-18T23:52:14.693Z,1.48
2022-09-18T23:54:41.057Z,1.75
2022-09-18T23:57:07.359Z,2.00
2022-09-18T23:59:34.013Z,1.73
